Time;durP1;ratioP1;P1;durP2;ratioP2;P2;SDS_P1;SDS_P2;PMS_P1;PMS_P2;Temp;Humidity;BMP_temperature;BMP_pressure;BME280_temperature;BME280_humidity;BME280_pressure;Samples;Min_cycle;Max_cycle;Signal;HPM_P1;HPM_P2
2023/07/18 00:00:17;;;;;;;23.20;10.40;;;;;;;;;;4996305;28;20026;-70
2023/07/18 00:02:43;;;;;;;25.87;10.00;;;;;;;;;;4996113;28;20041;-70
2023/07/18 00:05:12;;;;;;;25.07;10.70;;;;;;;;;;4996017;28;20054;-70
2023/07/18 00:07:37;;;;;;;21.97;9.83;;;;;;;;;;5000033;28;20042;-70
2023/07/18 00:10:03;;;;;;;23.27;9.77;;;;;;;;;;5000892;28;20045;-70
2023/07/18 00:12:28;;;;;;;22.57;10.17;;;;;;;;;;4999030;28;20030;-70
2023/07/18 00:14:53;;;;;;;21.03;9.60;;;;;;;;;;5000865;28;20025;-70
2023/07/18 00:17:19;;;;;;;24.87;10.30;;;;;;;;;;4995784;28;20537;-70
2023/07/18 00:19:44;;;;;;;25.00;10.30;;;;;;;;;;5012293;28;20021;-70
2023/07/18 00:22:09;;;;;;;26.67;9.70;;;;;;;;;;4995802;28;20029;-70
2023/07/18 00:24:35;;;;;;;24.90;10.67;;;;;;;;;;4997330;28;20038;-70
2023/07/18 00:27:00;;;;;;;21.47;9.80;;;;;;;;;;5010493;28;20034;-70
2023/07/18 00:29:26;;;;;;;22.90;10.47;;;;;;;;;;5001730;28;20105;-70
2023/07/18 00:31:51;;;;;;;21.17;10.07;;;;;;;;;;4993780;28;20041;-70
2023/07/18 00:34:16;;;;;;;26.37;10.33;;;;;;;;;;5003412;28;20057;-70
2023/07/18 00:36:42;;;;;;;22.07;9.40;;;;;;;;;;4993613;28;20053;-70
2023/07/18 00:39:07;;;;;;;23.90;9.77;;;;;;;;;;5002858;28;20470;-70
2023/07/18 00:41:32;;;;;;;23.37;9.90;;;;;;;;;;4993708;28;20024;-70
2023/07/18 00:43:58;;;;;;;23.63;9.83;;;;;;;;;;4993775;28;20383;-70
2023/07/18 00:46:23;;;;;;;27.63;10.17;;;;;;;;;;4998891;28;20025;-70
2023/07/18 00:48:48;;;;;;;25.20;9.77;;;;;;;;;;5003710;28;20026;-70
2023/07/18 00:51:14;;;;;;;27.57;11.30;;;;;;;;;;5001185;28;20098;-70
2023/07/18 00:53:39;;;;;;;27.03;10.47;;;;;;;;;;4993712;28;20034;-70
2023/07/18 00:56:04;;;;;;;32.27;10.63;;;;;;;;;;4998421;28;20359;-70
2023/07/18 00:58:30;;;;;;;25.20;10.47;;;;;;;;;;5004722;28;20024;-70
2023/07/18 01:03:58;;;;;;;29.53;11.07;;;;;;;;;;5035826;22;20159;-62
2023/07/18 01:06:24;;;;;;;26.50;10.67;;;;;;;;;;5019133;28;20097;-62
2023/07/18 01:08:50;;;;;;;24.67;10.80;;;;;;;;;;5021772;28;20021;-62
2023/07/18 01:11:15;;;;;;;27.10;10.90;;;;;;;;;;5014337;28;20022;-62
2023/07/18 01:13:40;;;;;;;28.00;11.13;;;;;;;;;;5014883;28;20535;-62
2023/07/18 01:16:06;;;;;;;26.37;10.83;;;;;;;;;;5023625;28;20029;-61
2023/07/18 01:18:31;;;;;;;33.40;11.43;;;;;;;;;;5027648;28;20022;-62
2023/07/18 01:20:56;;;;;;;34.23;11.80;;;;;;;;;;5027359;28;20029;-62
2023/07/18 01:23:24;;;;;;;33.63;12.13;;;;;;;;;;5024651;28;20045;-62
2023/07/18 01:25:49;;;;;;;34.70;12.10;;;;;;;;;;5024197;28;20462;-63
2023/07/18 01:28:14;;;;;;;33.97;11.97;;;;;;;;;;5025649;28;20041;-62
2023/07/18 01:30:39;;;;;;;29.77;11.70;;;;;;;;;;5030916;28;20033;-62
2023/07/18 01:33:05;;;;;;;32.17;12.03;;;;;;;;;;5018736;28;20025;-63
2023/07/18 01:35:30;;;;;;;30.17;12.53;;;;;;;;;;5022212;28;20114;-62
2023/07/18 01:37:56;;;;;;;33.87;12.03;;;;;;;;;;5020339;28;20038;-62
2023/07/18 01:40:21;;;;;;;36.30;11.90;;;;;;;;;;5027412;28;20466;-62
2023/07/18 01:42:51;;;;;;;32.07;12.47;;;;;;;;;;5020919;28;20041;-62
2023/07/18 01:45:17;;;;;;;35.73;12.53;;;;;;;;;;5023047;28;20037;-62
2023/07/18 01:47:42;;;;;;;33.77;12.40;;;;;;;;;;5030475;28;20030;-62
2023/07/18 01:50:08;;;;;;;36.43;12.67;;;;;;;;;;5030039;28;20109;-63
2023/07/18 01:52:34;;;;;;;37.80;12.63;;;;;;;;;;5017437;28;20026;-62
2023/07/18 01:55:00;;;;;;;45.47;13.23;;;;;;;;;;5027618;28;20017;-62
2023/07/18 01:57:29;;;;;;;44.67;14.03;;;;;;;;;;5029124;28;20028;-62
2023/07/18 01:59:55;;;;;;;37.87;12.47;;;;;;;;;;5018086;28;20458;-62
2023/07/18 02:02:21;;;;;;;48.87;13.17;;;;;;;;;;5015281;28;20031;-62
2023/07/18 02:04:46;;;;;;;43.77;13.73;;;;;;;;;;5000516;28;20454;-62
2023/07/18 02:07:11;;;;;;;37.47;12.47;;;;;;;;;;4999886;28;20046;-62
2023/07/18 02:09:37;;;;;;;40.03;12.90;;;;;;;;;;5002508;28;20034;-62
2023/07/18 02:12:02;;;;;;;47.27;12.63;;;;;;;;;;5007497;28;20084;-63
2023/07/18 02:14:28;;;;;;;42.80;13.13;;;;;;;;;;5002824;28;20053;-62
2023/07/18 02:16:53;;;;;;;47.87;14.37;;;;;;;;;;5001124;28;20029;-62
2023/07/18 02:19:18;;;;;;;45.73;13.67;;;;;;;;;;5004340;28;20040;-62
2023/07/18 02:21:43;;;;;;;45.30;14.00;;;;;;;;;;5005352;28;20026;-62
2023/07/18 02:24:09;;;;;;;51.00;14.03;;;;;;;;;;5000334;28;20026;-67
2023/07/18 02:26:34;;;;;;;47.03;14.40;;;;;;;;;;4997360;28;20152;-67
2023/07/18 02:28:59;;;;;;;49.20;15.20;;;;;;;;;;4996694;28;20037;-67
2023/07/18 02:31:24;;;;;;;41.73;13.20;;;;;;;;;;4997107;28;20543;-67
2023/07/18 02:33:49;;;;;;;33.70;11.53;;;;;;;;;;5001361;28;20030;-67
2023/07/18 02:36:15;;;;;;;33.90;12.03;;;;;;;;;;5008099;28;20026;-67
2023/07/18 02:38:40;;;;;;;26.70;10.30;;;;;;;;;;5001865;28;20390;-67
2023/07/18 02:41:05;;;;;;;31.93;10.77;;;;;;;;;;4999826;28;20498;-67
2023/07/18 02:43:30;;;;;;;34.40;11.37;;;;;;;;;;5000075;28;20080;-67
2023/07/18 02:45:56;;;;;;;38.93;11.60;;;;;;;;;;5000160;28;20116;-67
2023/07/18 02:48:21;;;;;;;44.67;12.10;;;;;;;;;;5001792;28;20112;-67
2023/07/18 02:50:48;;;;;;;42.60;12.57;;;;;;;;;;5004698;28;20433;-67
2023/07/18 02:53:13;;;;;;;41.50;12.70;;;;;;;;;;5006136;28;20030;-67
2023/07/18 02:55:38;;;;;;;46.13;13.60;;;;;;;;;;5005642;28;20540;-67
2023/07/18 02:58:03;;;;;;;45.47;13.63;;;;;;;;;;4998716;28;20092;-67
2023/07/18 03:00:30;;;;;;;38.63;12.13;;;;;;;;;;4996430;28;20046;-67
2023/07/18 03:02:55;;;;;;;51.47;13.57;;;;;;;;;;5003133;28;20103;-67
2023/07/18 03:05:22;;;;;;;46.57;13.93;;;;;;;;;;5010091;28;20030;-67
2023/07/18 03:07:47;;;;;;;45.53;14.27;;;;;;;;;;5012821;28;20072;-67
2023/07/18 03:10:13;;;;;;;40.23;13.70;;;;;;;;;;5001383;28;20466;-67
2023/07/18 03:12:40;;;;;;;48.30;15.07;;;;;;;;;;5013608;28;20026;-67
2023/07/18 03:15:06;;;;;;;47.53;14.93;;;;;;;;;;5000623;28;20030;-67
2023/07/18 03:17:31;;;;;;;47.73;14.57;;;;;;;;;;5001387;28;20435;-68
2023/07/18 03:19:57;;;;;;;51.17;14.83;;;;;;;;;;4999068;28;20050;-68
2023/07/18 03:22:22;;;;;;;52.50;15.17;;;;;;;;;;4999817;28;20041;-68
2023/07/18 03:24:47;;;;;;;50.80;14.60;;;;;;;;;;4998284;28;20474;-69
2023/07/18 03:27:13;;;;;;;56.67;15.07;;;;;;;;;;4995668;28;20513;-69
2023/07/18 03:29:38;;;;;;;57.57;15.23;;;;;;;;;;4997217;28;20018;-69
2023/07/18 03:32:03;;;;;;;48.07;15.17;;;;;;;;;;5007928;28;20041;-68
2023/07/18 03:34:29;;;;;;;57.37;15.13;;;;;;;;;;5000444;28;20115;-68
2023/07/18 03:36:54;;;;;;;45.27;13.37;;;;;;;;;;5002795;28;20019;-68
2023/07/18 03:39:19;;;;;;;48.47;14.03;;;;;;;;;;4996510;28;20018;-68
2023/07/18 03:41:45;;;;;;;52.83;14.33;;;;;;;;;;4996896;28;20602;-68
2023/07/18 03:44:10;;;;;;;46.27;14.63;;;;;;;;;;5008681;28;20359;-68
2023/07/18 03:46:35;;;;;;;54.67;14.80;;;;;;;;;;5010625;28;20105;-69
2023/07/18 03:49:00;;;;;;;53.23;15.70;;;;;;;;;;5000471;28;20021;-68
2023/07/18 03:51:26;;;;;;;46.73;13.77;;;;;;;;;;5002876;28;20014;-68
2023/07/18 03:53:51;;;;;;;48.63;14.30;;;;;;;;;;5000973;28;20025;-68
2023/07/18 03:56:16;;;;;;;49.20;14.47;;;;;;;;;;5001836;28;20018;-68
2023/07/18 03:58:42;;;;;;;43.80;14.03;;;;;;;;;;5005027;28;20032;-68
2023/07/18 04:01:08;;;;;;;44.83;14.73;;;;;;;;;;4997613;28;20092;-68
2023/07/18 04:03:34;;;;;;;45.13;14.07;;;;;;;;;;5004195;28;20046;-68
2023/07/18 04:05:59;;;;;;;42.50;13.37;;;;;;;;;;4998704;28;20026;-68
2023/07/18 04:08:24;;;;;;;42.87;12.70;;;;;;;;;;5010169;28;20065;-68
2023/07/18 04:10:49;;;;;;;42.67;13.60;;;;;;;;;;4995070;28;20026;-68
2023/07/18 04:13:15;;;;;;;39.80;13.37;;;;;;;;;;4994925;28;20034;-68
2023/07/18 04:15:40;;;;;;;39.33;13.60;;;;;;;;;;4998301;28;20032;-68
2023/07/18 04:18:05;;;;;;;36.27;12.80;;;;;;;;;;5001439;28;20402;-68
2023/07/18 04:20:31;;;;;;;35.37;12.37;;;;;;;;;;5004529;28;20093;-68
2023/07/18 04:22:57;;;;;;;34.80;11.77;;;;;;;;;;5007758;28;20025;-68
2023/07/18 04:25:23;;;;;;;34.60;11.47;;;;;;;;;;5002646;28;20539;-68
2023/07/18 04:27:48;;;;;;;26.00;11.17;;;;;;;;;;4995812;28;20113;-68
2023/07/18 04:30:13;;;;;;;23.10;9.50;;;;;;;;;;5000182;28;20037;-68
2023/07/18 04:32:41;;;;;;;21.20;9.60;;;;;;;;;;5002380;28;20038;-68
2023/07/18 04:35:07;;;;;;;18.50;8.53;;;;;;;;;;5004203;28;20800;-68
2023/07/18 04:37:33;;;;;;;21.90;8.73;;;;;;;;;;5008176;28;20088;-68
2023/07/18 04:39:58;;;;;;;19.43;8.50;;;;;;;;;;5008127;28;20481;-68
2023/07/18 04:42:23;;;;;;;17.63;7.80;;;;;;;;;;5004571;28;20022;-68
2023/07/18 04:44:49;;;;;;;17.47;8.13;;;;;;;;;;4999268;28;20030;-68
2023/07/18 04:47:14;;;;;;;16.80;7.47;;;;;;;;;;4997382;28;20072;-68
2023/07/18 04:49:39;;;;;;;15.97;7.90;;;;;;;;;;4999099;28;20069;-68
2023/07/18 04:52:04;;;;;;;15.40;7.27;;;;;;;;;;4998096;28;20030;-68
2023/07/18 04:54:30;;;;;;;13.33;6.70;;;;;;;;;;5005265;28;20022;-68
2023/07/18 04:56:55;;;;;;;14.83;6.67;;;;;;;;;;5004952;28;20127;-68
2023/07/18 04:59:21;;;;;;;14.47;6.80;;;;;;;;;;5010653;28;20101;-68
2023/07/18 05:01:46;;;;;;;15.35;6.55;;;;;;;;;;5000111;28;20027;-68
2023/07/18 05:04:11;;;;;;;14.43;6.57;;;;;;;;;;5003672;28;20069;-68
2023/07/18 05:06:36;;;;;;;14.07;6.50;;;;;;;;;;4998872;28;20022;-68
2023/07/18 05:09:03;;;;;;;11.52;5.45;;;;;;;;;;5000037;28;20088;-68
2023/07/18 05:11:28;;;;;;;11.25;5.63;;;;;;;;;;4999408;28;20022;-68
2023/07/18 05:13:53;;;;;;;14.20;5.50;;;;;;;;;;5003388;28;20034;-67
2023/07/18 05:16:19;;;;;;;9.50;5.20;;;;;;;;;;5001149;28;20025;-67
2023/07/18 05:18:44;;;;;;;16.73;4.90;;;;;;;;;;4999218;28;20050;-67
2023/07/18 05:21:09;;;;;;;11.93;4.72;;;;;;;;;;4995634;28;20405;-66
2023/07/18 05:23:34;;;;;;;9.68;4.07;;;;;;;;;;4995463;28;20532;-65
2023/07/18 05:26:00;;;;;;;9.48;4.00;;;;;;;;;;5002357;28;20034;-65
2023/07/18 05:28:25;;;;;;;8.50;3.30;;;;;;;;;;5000099;28;20049;-65
2023/07/18 05:30:50;;;;;;;6.68;2.83;;;;;;;;;;4998905;28;20057;-65
2023/07/18 05:33:15;;;;;;;7.75;2.50;;;;;;;;;;5002440;28;20036;-65
2023/07/18 05:35:41;;;;;;;8.65;2.72;;;;;;;;;;4997625;28;20029;-64
2023/07/18 05:38:06;;;;;;;8.50;2.83;;;;;;;;;;5001608;28;20461;-65
2023/07/18 05:40:31;;;;;;;7.03;2.78;;;;;;;;;;5000632;28;20018;-65
2023/07/18 05:42:57;;;;;;;6.68;2.67;;;;;;;;;;4993781;28;20092;-65
2023/07/18 05:45:22;;;;;;;8.65;2.80;;;;;;;;;;4999386;28;20073;-65
2023/07/18 05:47:47;;;;;;;6.63;2.60;;;;;;;;;;5004201;28;20026;-65
2023/07/18 05:50:13;;;;;;;6.38;2.60;;;;;;;;;;5006722;28;20025;-65
2023/07/18 05:52:38;;;;;;;6.85;2.55;;;;;;;;;;5006927;28;20025;-65
2023/07/18 05:55:04;;;;;;;8.82;2.42;;;;;;;;;;5007739;28;20014;-65
2023/07/18 05:57:29;;;;;;;7.55;2.30;;;;;;;;;;5009374;28;20030;-65
2023/07/18 05:59:54;;;;;;;7.10;2.47;;;;;;;;;;5011202;28;20149;-65
2023/07/18 06:02:21;;;;;;;6.32;2.13;;;;;;;;;;5010337;28;20033;-65
2023/07/18 06:04:47;;;;;;;6.45;2.28;;;;;;;;;;5009447;28;20037;-65
2023/07/18 06:07:12;;;;;;;8.43;2.03;;;;;;;;;;5010177;28;20022;-65
2023/07/18 06:09:37;;;;;;;5.85;2.00;;;;;;;;;;5011233;28;20467;-65
2023/07/18 06:12:03;;;;;;;6.38;2.35;;;;;;;;;;5006831;28;20026;-65
2023/07/18 06:14:28;;;;;;;5.88;2.00;;;;;;;;;;5012260;28;20022;-65
2023/07/18 06:16:53;;;;;;;5.68;2.25;;;;;;;;;;5009792;28;20022;-65
2023/07/18 06:19:19;;;;;;;7.72;2.10;;;;;;;;;;5007097;28;20037;-65
2023/07/18 06:21:44;;;;;;;6.10;2.10;;;;;;;;;;4996863;28;20014;-65
2023/07/18 06:24:10;;;;;;;7.28;2.72;;;;;;;;;;5003321;28;20068;-65
2023/07/18 06:26:35;;;;;;;8.25;2.50;;;;;;;;;;5013218;28;20110;-65
2023/07/18 06:29:00;;;;;;;5.43;1.98;;;;;;;;;;5012425;28;20088;-65
2023/07/18 06:31:26;;;;;;;8.30;2.25;;;;;;;;;;5013301;28;20053;-65
2023/07/18 06:33:51;;;;;;;9.70;2.17;;;;;;;;;;5012422;28;20054;-65
2023/07/18 06:36:16;;;;;;;8.05;2.80;;;;;;;;;;5002362;28;20052;-65
2023/07/18 06:38:42;;;;;;;10.15;2.50;;;;;;;;;;5007502;28;20018;-65
2023/07/18 06:41:07;;;;;;;8.05;2.22;;;;;;;;;;5013065;28;20150;-65
2023/07/18 06:43:33;;;;;;;5.80;2.15;;;;;;;;;;5013237;28;20429;-65
2023/07/18 06:45:58;;;;;;;7.72;2.33;;;;;;;;;;4993298;28;20102;-65
2023/07/18 06:48:24;;;;;;;7.88;2.55;;;;;;;;;;5003846;28;20053;-65
2023/07/18 06:50:51;;;;;;;7.32;2.33;;;;;;;;;;5012773;28;20076;-65
2023/07/18 06:53:19;;;;;;;8.18;2.40;;;;;;;;;;5012715;28;20030;-65
2023/07/18 06:55:48;;;;;;;9.82;2.83;;;;;;;;;;5012060;28;20014;-65
2023/07/18 06:58:14;;;;;;;6.55;2.50;;;;;;;;;;5012052;28;20558;-65
2023/07/18 07:00:40;;;;;;;7.53;2.40;;;;;;;;;;5008597;28;20105;-65
2023/07/18 07:03:06;;;;;;;7.10;2.38;;;;;;;;;;5012087;28;20426;-65
2023/07/18 07:05:34;;;;;;;10.60;2.38;;;;;;;;;;5013041;28;20100;-65
2023/07/18 07:08:00;;;;;;;6.90;2.00;;;;;;;;;;5013167;28;20482;-65
2023/07/18 07:10:25;;;;;;;8.07;2.30;;;;;;;;;;5015501;28;20101;-65
2023/07/18 07:12:50;;;;;;;6.82;2.05;;;;;;;;;;5009880;28;20022;-65
2023/07/18 07:15:15;;;;;;;7.60;2.03;;;;;;;;;;5016031;28;20108;-65
2023/07/18 07:17:41;;;;;;;6.13;2.20;;;;;;;;;;5009937;28;20025;-65
2023/07/18 07:20:06;;;;;;;6.72;2.05;;;;;;;;;;5015962;28;20018;-65
2023/07/18 07:22:31;;;;;;;8.80;2.40;;;;;;;;;;5015482;28;20382;-66
2023/07/18 07:24:57;;;;;;;5.90;2.00;;;;;;;;;;5016064;28;20068;-66
2023/07/18 07:27:22;;;;;;;7.32;2.05;;;;;;;;;;5015871;28;20101;-65
2023/07/18 07:29:49;;;;;;;6.63;1.85;;;;;;;;;;5015909;28;20029;-65
2023/07/18 07:32:14;;;;;;;8.73;2.13;;;;;;;;;;5015994;28;20040;-65
2023/07/18 07:34:39;;;;;;;9.02;2.22;;;;;;;;;;5011049;28;20381;-65
2023/07/18 07:37:05;;;;;;;8.93;2.10;;;;;;;;;;5006884;28;20453;-65
2023/07/18 07:39:30;;;;;;;4.13;1.38;;;;;;;;;;5015151;28;20474;-65
2023/07/18 07:41:55;;;;;;;6.90;1.95;;;;;;;;;;5008622;28;20462;-65
2023/07/18 07:44:20;;;;;;;6.63;1.70;;;;;;;;;;5011589;28;20055;-65
2023/07/18 07:46:46;;;;;;;7.30;1.48;;;;;;;;;;5009531;28;20393;-65
2023/07/18 07:49:11;;;;;;;6.40;1.80;;;;;;;;;;5006726;28;20033;-65
2023/07/18 07:51:36;;;;;;;3.75;1.20;;;;;;;;;;5015674;28;20018;-65
2023/07/18 07:54:02;;;;;;;4.97;1.50;;;;;;;;;;5011167;28;20462;-65
2023/07/18 07:56:27;;;;;;;7.47;1.60;;;;;;;;;;5006451;28;20022;-65
2023/07/18 07:58:52;;;;;;;6.78;1.50;;;;;;;;;;5013483;28;20046;-64
2023/07/18 08:01:17;;;;;;;5.55;1.38;;;;;;;;;;5011114;28;20022;-65
2023/07/18 08:03:43;;;;;;;4.30;1.67;;;;;;;;;;5012668;28;20111;-65
2023/07/18 08:06:08;;;;;;;5.95;1.20;;;;;;;;;;5012767;28;20164;-65
2023/07/18 08:08:33;;;;;;;4.60;1.30;;;;;;;;;;5010635;28;20037;-65
2023/07/18 08:10:58;;;;;;;6.05;1.30;;;;;;;;;;5015300;28;20018;-66
2023/07/18 08:13:24;;;;;;;4.30;1.20;;;;;;;;;;5014538;28;20018;-65
2023/07/18 08:15:51;;;;;;;3.70;1.20;;;;;;;;;;5007147;28;20061;-63
2023/07/18 08:18:16;;;;;;;3.83;1.10;;;;;;;;;;5005629;28;20032;-63
2023/07/18 08:20:42;;;;;;;4.90;1.23;;;;;;;;;;5003443;28;20523;-63
2023/07/18 08:23:07;;;;;;;3.90;1.20;;;;;;;;;;5009848;28;20108;-63
2023/07/18 08:25:32;;;;;;;6.15;1.27;;;;;;;;;;5012858;28;20018;-63
2023/07/18 08:27:58;;;;;;;4.53;1.10;;;;;;;;;;5010595;28;20033;-63
2023/07/18 08:30:23;;;;;;;3.40;1.10;;;;;;;;;;5014080;28;20026;-64
2023/07/18 08:32:48;;;;;;;4.00;1.17;;;;;;;;;;5011335;28;20456;-66
2023/07/18 08:35:14;;;;;;;4.80;1.20;;;;;;;;;;5009129;28;20030;-66
2023/07/18 08:37:39;;;;;;;5.70;1.30;;;;;;;;;;5011448;28;20022;-66
2023/07/18 08:40:05;;;;;;;4.53;1.20;;;;;;;;;;5012255;28;20248;-66
2023/07/18 08:42:31;;;;;;;4.22;1.20;;;;;;;;;;5014643;28;20025;-66
2023/07/18 08:44:57;;;;;;;5.95;1.15;;;;;;;;;;5014098;28;20030;-66
2023/07/18 08:47:23;;;;;;;4.20;1.13;;;;;;;;;;5002436;28;20030;-66
2023/07/18 08:49:48;;;;;;;5.35;1.40;;;;;;;;;;5006697;28;20021;-67
2023/07/18 08:52:14;;;;;;;5.85;1.92;;;;;;;;;;5009306;28;20120;-66
2023/07/18 08:54:39;;;;;;;6.13;1.55;;;;;;;;;;5008288;28;20093;-66
2023/07/18 08:57:05;;;;;;;3.13;1.20;;;;;;;;;;5010842;28;20018;-66
2023/07/18 08:59:31;;;;;;;5.07;1.27;;;;;;;;;;5010796;28;20045;-66
2023/07/18 09:01:56;;;;;;;4.68;1.20;;;;;;;;;;5008650;28;20149;-67
2023/07/18 09:04:21;;;;;;;4.00;1.10;;;;;;;;;;5009349;28;20125;-67
2023/07/18 09:06:47;;;;;;;5.90;1.15;;;;;;;;;;5000526;28;20030;-66
2023/07/18 09:09:21;;;;;;;2.83;0.93;;;;;;;;;;5012549;28;20034;-67
2023/07/18 09:12:03;;;;;;;3.67;1.00;;;;;;;;;;5013930;28;20026;-67
2023/07/18 09:14:29;;;;;;;5.53;1.20;;;;;;;;;;5005001;28;20065;-67
2023/07/18 09:16:55;;;;;;;5.35;1.02;;;;;;;;;;5014466;28;20381;-67
2023/07/18 09:19:40;;;;;;;7.32;1.40;;;;;;;;;;5012461;28;20010;-67
2023/07/18 09:22:07;;;;;;;4.53;1.23;;;;;;;;;;5013210;28;20168;-67
2023/07/18 09:24:35;;;;;;;5.40;1.30;;;;;;;;;;5010621;28;20687;-67
2023/07/18 09:27:00;;;;;;;4.72;1.30;;;;;;;;;;4999989;28;20047;-68
2023/07/18 09:29:26;;;;;;;4.00;1.30;;;;;;;;;;5009482;28;20101;-67
2023/07/18 09:31:51;;;;;;;3.10;0.95;;;;;;;;;;5008532;28;20079;-68
2023/07/18 09:34:18;;;;;;;4.35;1.35;;;;;;;;;;5010070;28;20018;-68
2023/07/18 09:36:53;;;;;;;3.75;1.27;;;;;;;;;;5000334;28;20023;-68
2023/07/18 09:39:18;;;;;;;3.80;1.08;;;;;;;;;;5005996;28;20022;-68
2023/07/18 09:41:44;;;;;;;2.63;0.95;;;;;;;;;;5010401;28;20025;-68
2023/07/18 09:44:09;;;;;;;3.65;1.30;;;;;;;;;;5004319;28;20018;-66
2023/07/18 09:46:35;;;;;;;2.70;0.90;;;;;;;;;;5008542;28;20390;-65
2023/07/18 09:49:00;;;;;;;2.83;1.02;;;;;;;;;;5009420;28;20097;-66
2023/07/18 09:51:30;;;;;;;5.70;1.20;;;;;;;;;;5011197;28;20026;-67
2023/07/18 09:53:56;;;;;;;3.08;1.10;;;;;;;;;;5010731;28;20029;-65
2023/07/18 09:56:22;;;;;;;3.78;1.10;;;;;;;;;;4999934;28;20518;-66
2023/07/18 09:58:48;;;;;;;3.30;1.20;;;;;;;;;;5009369;28;20101;-66
2023/07/18 10:01:13;;;;;;;3.60;1.45;;;;;;;;;;5008092;28;20034;-67
2023/07/18 10:03:39;;;;;;;3.80;1.13;;;;;;;;;;5009348;28;20149;-68
2023/07/18 10:06:05;;;;;;;6.00;1.67;;;;;;;;;;5006928;28;20025;-68
2023/07/18 10:08:31;;;;;;;6.53;1.38;;;;;;;;;;5009452;28;20030;-68
2023/07/18 10:11:02;;;;;;;4.50;1.20;;;;;;;;;;5009291;28;20473;-67
2023/07/18 10:13:28;;;;;;;5.25;1.40;;;;;;;;;;5009631;28;20022;-67
2023/07/18 10:16:12;;;;;;;4.60;1.25;;;;;;;;;;5009948;28;20141;-68
2023/07/18 10:18:44;;;;;;;2.83;1.00;;;;;;;;;;5001585;28;20015;-68
2023/07/18 10:21:11;;;;;;;5.43;1.40;;;;;;;;;;5013308;28;20040;-69
2023/07/18 10:23:40;;;;;;;4.05;1.35;;;;;;;;;;5012683;28;20473;-68
2023/07/18 10:26:06;;;;;;;3.15;1.20;;;;;;;;;;5007403;28;20038;-68
2023/07/18 10:28:41;;;;;;;2.83;1.10;;;;;;;;;;5009635;28;20030;-68
2023/07/18 10:31:06;;;;;;;4.25;1.20;;;;;;;;;;4998877;28;20030;-68
2023/07/18 10:33:31;;;;;;;2.83;1.05;;;;;;;;;;4994161;28;20030;-69
2023/07/18 10:35:56;;;;;;;4.20;1.33;;;;;;;;;;5013170;28;20022;-69
2023/07/18 10:38:22;;;;;;;3.33;1.15;;;;;;;;;;5013005;28;20025;-69
2023/07/18 10:40:48;;;;;;;5.28;1.45;;;;;;;;;;5012939;28;20026;-69
2023/07/18 10:43:18;;;;;;;4.00;1.33;;;;;;;;;;5016312;28;20486;-69
2023/07/18 10:45:43;;;;;;;4.45;1.70;;;;;;;;;;5014008;28;20072;-68
2023/07/18 10:48:13;;;;;;;4.88;1.40;;;;;;;;;;5016695;28;20045;-69
2023/07/18 10:50:38;;;;;;;2.72;1.02;;;;;;;;;;5016144;28;20049;-68
2023/07/18 10:53:03;;;;;;;3.58;1.10;;;;;;;;;;5016647;28;20488;-69
2023/07/18 10:55:28;;;;;;;3.47;1.35;;;;;;;;;;5015848;28;20025;-68
2023/07/18 10:57:54;;;;;;;4.15;1.33;;;;;;;;;;5016587;28;20109;-68
2023/07/18 11:00:20;;;;;;;4.10;1.30;;;;;;;;;;5016799;28;20084;-68
2023/07/18 11:02:45;;;;;;;3.03;1.10;;;;;;;;;;5015202;28;20049;-67
2023/07/18 11:05:11;;;;;;;3.58;1.25;;;;;;;;;;5014125;28;20030;-68
2023/07/18 11:07:47;;;;;;;4.65;1.17;;;;;;;;;;5015154;28;20044;-68
2023/07/18 11:10:13;;;;;;;3.75;1.15;;;;;;;;;;5015656;28;20072;-68
2023/07/18 11:12:38;;;;;;;2.88;1.02;;;;;;;;;;5016482;28;20417;-68
2023/07/18 11:15:07;;;;;;;3.50;1.20;;;;;;;;;;5012631;28;20072;-69
2023/07/18 11:17:33;;;;;;;3.97;1.30;;;;;;;;;;5015466;28;20030;-69
2023/07/18 11:19:58;;;;;;;3.88;1.13;;;;;;;;;;5014688;28;20044;-69
2023/07/18 11:22:24;;;;;;;5.72;1.27;;;;;;;;;;5014649;28;20116;-69
2023/07/18 11:24:50;;;;;;;4.50;1.20;;;;;;;;;;5016445;28;20026;-68
2023/07/18 11:27:21;;;;;;;5.13;1.30;;;;;;;;;;5015850;28;20029;-69
2023/07/18 11:29:46;;;;;;;;;;;;;;;;;;5016732;28;20025;-68
2023/07/18 11:32:12;;;;;;;3.35;1.10;;;;;;;;;;5015381;28;19915;-68
2023/07/18 11:34:37;;;;;;;3.20;0.90;;;;;;;;;;5013547;28;20018;-68
2023/07/18 11:37:05;;;;;;;4.30;1.27;;;;;;;;;;5006145;28;20150;-68
2023/07/18 11:39:31;;;;;;;3.08;1.15;;;;;;;;;;4997102;28;20026;-69
2023/07/18 11:42:05;;;;;;;4.75;1.02;;;;;;;;;;5015156;28;20026;-68
2023/07/18 11:44:30;;;;;;;3.97;1.00;;;;;;;;;;5015871;28;20096;-69
2023/07/18 11:46:56;;;;;;;5.10;1.58;;;;;;;;;;5014848;28;20106;-69
2023/07/18 11:49:34;;;;;;;2.45;0.90;;;;;;;;;;5013788;28;20038;-69
2023/07/18 11:52:01;;;;;;;2.78;1.27;;;;;;;;;;5011612;28;20022;-68
2023/07/18 11:54:26;;;;;;;2.78;1.10;;;;;;;;;;5007049;28;20028;-68
2023/07/18 11:56:51;;;;;;;2.53;0.85;;;;;;;;;;5010890;28;20466;-68
2023/07/18 11:59:16;;;;;;;3.15;1.00;;;;;;;;;;5008875;28;20021;-69
2023/07/18 12:01:41;;;;;;;2.58;0.90;;;;;;;;;;5006931;28;20393;-69
2023/07/18 12:04:10;;;;;;;2.83;0.90;;;;;;;;;;5011452;28;20470;-69
2023/07/18 12:06:35;;;;;;;3.28;1.30;;;;;;;;;;5015337;28;20471;-68
2023/07/18 12:09:00;;;;;;;2.72;0.85;;;;;;;;;;5013170;28;20018;-68
2023/07/18 12:11:26;;;;;;;3.05;1.13;;;;;;;;;;5011953;28;20036;-69
2023/07/18 12:13:51;;;;;;;3.22;0.90;;;;;;;;;;5014005;28;20112;-70
2023/07/18 12:16:16;;;;;;;2.70;0.90;;;;;;;;;;5013860;28;20465;-69
2023/07/18 12:18:41;;;;;;;2.72;0.93;;;;;;;;;;5013571;28;20014;-70
2023/07/18 12:21:07;;;;;;;2.15;0.90;;;;;;;;;;4999707;28;20048;-71
2023/07/18 12:23:32;;;;;;;1.98;0.90;;;;;;;;;;5008680;28;20109;-69
2023/07/18 12:25:57;;;;;;;2.22;0.98;;;;;;;;;;5011395;28;20075;-70
2023/07/18 12:28:22;;;;;;;2.65;0.82;;;;;;;;;;5014197;28;20021;-70
2023/07/18 12:30:48;;;;;;;3.65;1.20;;;;;;;;;;5014407;28;20033;-71
2023/07/18 12:33:14;;;;;;;5.68;1.23;;;;;;;;;;5013450;28;20033;-70
2023/07/18 12:35:39;;;;;;;2.67;1.00;;;;;;;;;;5014574;28;20049;-70
2023/07/18 12:38:06;;;;;;;3.50;0.90;;;;;;;;;;5014376;28;20068;-70
2023/07/18 12:40:31;;;;;;;4.93;1.27;;;;;;;;;;5015003;28;20493;-69
2023/07/18 12:42:57;;;;;;;2.67;1.10;;;;;;;;;;5012723;28;20077;-72
2023/07/18 12:45:23;;;;;;;4.70;1.30;;;;;;;;;;5011196;28;20474;-72
2023/07/18 12:47:49;;;;;;;2.38;0.80;;;;;;;;;;5012426;28;20401;-71
2023/07/18 12:50:14;;;;;;;1.63;0.85;;;;;;;;;;5011603;28;20029;-71
2023/07/18 12:52:39;;;;;;;2.15;0.93;;;;;;;;;;5014352;28;20382;-72
2023/07/18 12:55:05;;;;;;;4.38;0.90;;;;;;;;;;5014587;28;20421;-73
2023/07/18 12:57:30;;;;;;;2.83;1.00;;;;;;;;;;5015076;28;20026;-72
2023/07/18 12:59:56;;;;;;;2.28;0.77;;;;;;;;;;5014275;28;20022;-72
2023/07/18 13:02:21;;;;;;;2.38;1.00;;;;;;;;;;5010539;28;20026;-72
2023/07/18 13:04:46;;;;;;;2.40;0.90;;;;;;;;;;5014063;28;20030;-71
2023/07/18 13:07:11;;;;;;;2.28;0.90;;;;;;;;;;5014313;28;20068;-73
2023/07/18 13:09:38;;;;;;;2.40;0.85;;;;;;;;;;5011084;28;20022;-73
2023/07/18 13:12:04;;;;;;;2.38;0.80;;;;;;;;;;5009937;28;20485;-72
2023/07/18 13:14:29;;;;;;;2.28;0.80;;;;;;;;;;5014028;28;20038;-74
2023/07/18 13:16:54;;;;;;;2.65;0.88;;;;;;;;;;5014265;28;20029;-73
2023/07/18 13:19:19;;;;;;;2.33;0.93;;;;;;;;;;5012650;28;20026;-73
2023/07/18 13:21:45;;;;;;;3.00;1.00;;;;;;;;;;5013976;28;20021;-74
2023/07/18 13:24:11;;;;;;;1.80;0.70;;;;;;;;;;5013875;28;20076;-74
2023/07/18 13:26:36;;;;;;;1.92;0.80;;;;;;;;;;5012971;28;20072;-74
2023/07/18 13:29:03;;;;;;;2.40;0.90;;;;;;;;;;5011075;28;20056;-74
2023/07/18 13:31:29;;;;;;;2.60;0.77;;;;;;;;;;5013863;28;20034;-74
2023/07/18 13:33:54;;;;;;;2.17;0.80;;;;;;;;;;5012362;28;20037;-74
2023/07/18 13:36:19;;;;;;;3.58;0.73;;;;;;;;;;5000954;28;20033;-75
2023/07/18 13:38:44;;;;;;;1.63;0.70;;;;;;;;;;5005834;28;20038;-74
2023/07/18 13:41:10;;;;;;;2.25;0.80;;;;;;;;;;5012319;28;20124;-75
2023/07/18 13:43:36;;;;;;;3.80;0.93;;;;;;;;;;5011749;28;20034;-74
2023/07/18 13:46:01;;;;;;;3.83;0.85;;;;;;;;;;5011736;28;20030;-74
2023/07/18 13:48:27;;;;;;;4.07;0.82;;;;;;;;;;5011284;28;20162;-73
2023/07/18 13:50:52;;;;;;;2.83;0.95;;;;;;;;;;5013418;28;20032;-72
2023/07/18 13:53:17;;;;;;;1.83;0.70;;;;;;;;;;5013352;28;20026;-73
2023/07/18 13:55:43;;;;;;;1.60;0.70;;;;;;;;;;5013442;28;20026;-74
2023/07/18 13:58:08;;;;;;;1.98;0.80;;;;;;;;;;5013754;28;20018;-78
2023/07/18 14:00:34;;;;;;;2.58;0.90;;;;;;;;;;5008644;28;20025;-80
2023/07/18 14:02:59;;;;;;;2.75;0.75;;;;;;;;;;5010473;28;20102;-79
2023/07/18 14:05:25;;;;;;;3.85;0.90;;;;;;;;;;5011428;28;20033;-79
2023/07/18 14:07:50;;;;;;;1.90;0.70;;;;;;;;;;5013837;28;20025;-81
2023/07/18 14:10:15;;;;;;;2.35;0.70;;;;;;;;;;5008866;28;20045;-82
2023/07/18 14:12:40;;;;;;;2.45;0.98;;;;;;;;;;5007258;28;20060;-81
2023/07/18 14:15:06;;;;;;;2.63;0.70;;;;;;;;;;5013113;28;20018;-80
2023/07/18 14:17:31;;;;;;;3.65;0.80;;;;;;;;;;5007247;28;20394;-82
2023/07/18 14:19:57;;;;;;;1.85;0.70;;;;;;;;;;5007675;28;20050;-81
2023/07/18 14:22:23;;;;;;;2.05;0.68;;;;;;;;;;5009638;28;20359;-83
2023/07/18 14:24:49;;;;;;;3.80;0.77;;;;;;;;;;5011267;28;20105;-79
2023/07/18 14:27:15;;;;;;;2.42;0.90;;;;;;;;;;5008056;28;20439;-78
2023/07/18 14:29:41;;;;;;;3.95;0.90;;;;;;;;;;4997602;28;20039;-79